Time,TemperatureF,DewpointF,PressureIn,WindDirection,WindDirectionDegrees,WindSpeedMPH,WindSpeedGustMPH,Humidity,HourlyPrecipIn,Conditions,Clouds,dailyrainin,SoftwareType,DateUTC
2013-01-02 00:02:00,32.0,11.0,-100.00,South,188,7.0,7.0,41,-99.99,,,-99.99,,2013-01-02 06:02:00,
2013-01-02 00:12:00,32.0,12.0,-100.00,SSW,202,6.0,8.0,42,-99.99,,,-99.99,,2013-01-02 06:12:00,
2013-01-02 00:22:00,32.0,11.0,-100.00,SSW,205,8.0,9.0,41,-99.99,,,-99.99,,2013-01-02 06:22:00,
2013-01-02 00:32:00,32.0,11.0,-100.00,SSW,208,6.0,7.0,41,-99.99,,,-99.99,,2013-01-02 06:32:00,
2013-01-02 00:42:00,32.0,11.0,-100.00,SSW,208,6.0,7.0,41,-99.99,,,-99.99,,2013-01-02 06:42:00,
2013-01-02 00:52:00,32.0,7.0,-100.00,WSW,242,5.0,7.0,34,-99.99,,,-99.99,,2013-01-02 06:52:00,
2013-01-02 01:02:00,32.0,8.0,-100.00,SW,222,5.0,6.0,36,-99.99,,,-99.99,,2013-01-02 07:02:00,
2013-01-02 01:12:00,30.0,14.0,-100.00,South,179,5.0,5.0,50,-99.99,,,-99.99,,2013-01-02 07:12:00,
2013-01-02 01:22:00,32.0,5.0,-100.00,WSW,258,5.0,7.0,31,-99.99,,,-99.99,,2013-01-02 07:22:00,
2013-01-02 01:32:00,34.0,6.0,-100.00,West,260,6.0,7.0,30,-99.99,,,-99.99,,2013-01-02 07:32:00,
2013-01-02 01:42:00,32.0,6.0,-100.00,WSW,257,5.0,5.0,32,-99.99,,,-99.99,,2013-01-02 07:42:00,
2013-01-02 01:52:00,30.0,13.0,-100.00,SSW,202,3.0,4.0,48,-99.99,,,-99.99,,2013-01-02 07:52:00,
2013-01-02 02:02:00,30.0,13.0,-100.00,SSW,202,3.0,4.0,48,-99.99,,,-99.99,,2013-01-02 08:02:00,
2013-01-02 02:12:00,32.0,9.0,-100.00,WSW,248,3.0,4.0,37,-99.99,,,-99.99,,2013-01-02 08:12:00,
2013-01-02 02:22:00,32.0,9.0,-100.00,WSW,237,3.0,4.0,37,-99.99,,,-99.99,,2013-01-02 08:22:00,
2013-01-02 02:32:00,32.0,7.0,-100.00,SW,227,4.0,7.0,35,-99.99,,,-99.99,,2013-01-02 08:32:00,
2013-01-02 02:42:00,32.0,7.0,-100.00,SW,227,4.0,7.0,35,-99.99,,,-99.99,,2013-01-02 08:42:00,
2013-01-02 02:52:00,32.0,8.0,-100.00,South,182,2.0,4.0,36,-99.99,,,-99.99,,2013-01-02 08:52:00,
2013-01-02 03:02:00,34.0,6.0,-100.00,WSW,256,4.0,22.0,30,-99.99,,,-99.99,,2013-01-02 09:02:00,
2013-01-02 03:12:00,34.0,6.0,-100.00,WSW,258,5.0,7.0,30,-99.99,,,-99.99,,2013-01-02 09:12:00,
2013-01-02 03:22:00,34.0,6.0,-100.00,West,271,7.0,8.0,30,-99.99,,,-99.99,,2013-01-02 09:22:00,
2013-01-02 03:32:00,34.0,8.0,-100.00,WSW,254,5.0,7.0,34,-99.99,,,-99.99,,2013-01-02 09:32:00,
2013-01-02 03:43:00,34.0,8.0,-100.00,WSW,254,5.0,7.0,34,-99.99,,,-99.99,,2013-01-02 09:43:00,
2013-01-02 03:52:00,34.0,8.0,-100.00,West,259,6.0,9.0,34,-99.99,,,-99.99,,2013-01-02 09:52:00,
2013-01-02 04:02:00,34.0,8.0,-100.00,WSW,238,6.0,7.0,34,-99.99,,,-99.99,,2013-01-02 10:02:00,
2013-01-02 04:12:00,34.0,8.0,-100.00,WSW,238,7.0,9.0,34,-99.99,,,-99.99,,2013-01-02 10:12:00,
2013-01-02 04:22:00,34.0,8.0,-100.00,SW,227,7.0,9.0,33,-99.99,,,-99.99,,2013-01-02 10:22:00,
2013-01-02 04:32:00,34.0,9.0,-100.00,West,262,6.0,8.0,35,-99.99,,,-99.99,,2013-01-02 10:32:00,
2013-01-02 04:42:00,34.0,9.0,-100.00,West,262,6.0,8.0,35,-99.99,,,-99.99,,2013-01-02 10:42:00,
2013-01-02 04:52:00,34.0,9.0,-100.00,WSW,246,5.0,7.0,35,-99.99,,,-99.99,,2013-01-02 10:52:00,
2013-01-02 05:02:00,34.0,10.0,-100.00,West,259,6.0,7.0,36,-99.99,,,-99.99,,2013-01-02 11:02:00,
2013-01-02 05:12:00,36.0,12.0,-100.00,West,264,6.0,7.0,37,-99.99,,,-99.99,,2013-01-02 11:12:00,
2013-01-02 05:22:00,36.0,13.0,-100.00,WSW,256,6.0,7.0,38,-99.99,,,-99.99,,2013-01-02 11:22:00,
2013-01-02 05:32:00,34.0,11.0,-100.00,West,280,5.0,6.0,39,-99.99,,,-99.99,,2013-01-02 11:32:00,
2013-01-02 05:42:00,34.0,11.0,-100.00,West,280,5.0,6.0,39,-99.99,,,-99.99,,2013-01-02 11:42:00,
2013-01-02 05:52:00,34.0,13.0,-100.00,West,278,4.0,5.0,41,-99.99,,,-99.99,,2013-01-02 11:52:00,
2013-01-02 06:02:00,36.0,15.0,-100.00,West,272,4.0,4.0,43,-99.99,,,-99.99,,2013-01-02 12:02:00,
2013-01-02 06:12:00,36.0,15.0,-100.00,West,259,4.0,4.0,43,-99.99,,,-99.99,,2013-01-02 12:12:00,
2013-01-02 06:22:00,36.0,16.0,-100.00,West,259,1.0,3.0,44,-99.99,,,-99.99,,2013-01-02 12:22:00,
2013-01-02 06:32:00,32.0,9.0,-100.00,ENE,71,4.0,6.0,37,-99.99,,,-99.99,,2013-01-02 12:32:00,
2013-01-02 06:42:00,32.0,9.0,-100.00,ENE,71,4.0,6.0,37,-99.99,,,-99.99,,2013-01-02 12:42:00,
2013-01-02 06:53:00,32.0,9.0,-100.00,East,82,3.0,4.0,37,-99.99,,,-99.99,,2013-01-02 12:53:00,
2013-01-02 07:02:00,32.0,9.0,-100.00,East,82,3.0,4.0,37,-99.99,,,-99.99,,2013-01-02 13:02:00,
2013-01-02 07:12:00,32.0,7.0,-100.00,East,96,4.0,5.0,34,-99.99,,,-99.99,,2013-01-02 13:12:00,
2013-01-02 07:22:00,32.0,7.0,-100.00,ESE,109,3.0,4.0,34,-99.99,,,-99.99,,2013-01-02 13:22:00,
2013-01-02 07:32:00,32.0,9.0,-100.00,ESE,109,2.0,3.0,38,-99.99,,,-99.99,,2013-01-02 13:32:00,
2013-01-02 07:43:00,32.0,7.0,-100.00,ESE,122,2.0,2.0,35,-99.99,,,-99.99,,2013-01-02 13:43:00,
2013-01-02 07:52:00,32.0,6.0,-100.00,SE,128,3.0,4.0,33,-99.99,,,-99.99,,2013-01-02 13:52:00,
2013-01-02 08:02:00,32.0,6.0,-100.00,SE,127,2.0,3.0,33,-99.99,,,-99.99,,2013-01-02 14:02:00,
2013-01-02 08:12:00,32.0,6.0,-100.00,SE,127,4.0,4.0,33,-99.99,,,-99.99,,2013-01-02 14:12:00,
2013-01-02 08:22:00,32.0,6.0,-100.00,ESE,121,3.0,4.0,32,-99.99,,,-99.99,,2013-01-02 14:22:00,
2013-01-02 08:33:00,32.0,7.0,-100.00,SE,128,3.0,3.0,35,-99.99,,,-99.99,,2013-01-02 14:33:00,
2013-01-02 08:42:00,32.0,4.0,-100.00,ESE,107,4.0,5.0,30,-99.99,,,-99.99,,2013-01-02 14:42:00,
2013-01-02 08:53:00,32.0,5.0,-100.00,ESE,122,5.0,6.0,31,-99.99,,,-99.99,,2013-01-02 14:53:00,
2013-01-02 09:03:00,32.0,5.0,-100.00,SE,126,4.0,5.0,31,-99.99,,,-99.99,,2013-01-02 15:03:00,
2013-01-02 09:12:00,32.0,4.0,-100.00,SE,125,4.0,4.0,30,-99.99,,,-99.99,,2013-01-02 15:12:00,
2013-01-02 09:22:00,34.0,4.0,-100.00,SE,137,4.0,6.0,28,-99.99,,,-99.99,,2013-01-02 15:22:00,
2013-01-02 09:33:00,34.0,8.0,-100.00,SSE,158,7.0,9.0,33,-99.99,,,-99.99,,2013-01-02 15:33:00,
2013-01-02 09:43:00,34.0,8.0,-100.00,SSE,158,7.0,9.0,33,-99.99,,,-99.99,,2013-01-02 15:43:00,
2013-01-02 09:53:00,34.0,8.0,-100.00,SSE,159,7.0,10.0,33,-99.99,,,-99.99,,2013-01-02 15:53:00,
2013-01-02 10:03:00,34.0,8.0,-100.00,SSE,164,6.0,9.0,33,-99.99,,,-99.99,,2013-01-02 16:03:00,
2013-01-02 10:13:00,36.0,9.0,-100.00,SSE,155,7.0,10.0,32,-99.99,,,-99.99,,2013-01-02 16:13:00,
2013-01-02 10:22:00,36.0,8.0,-100.00,SSE,155,7.0,15.0,31,-99.99,,,-99.99,,2013-01-02 16:22:00,
2013-01-02 10:33:00,36.0,7.0,-100.00,SSE,159,9.0,13.0,30,-99.99,,,-99.99,,2013-01-02 16:33:00,
2013-01-02 10:43:00,36.0,7.0,-100.00,SSE,159,9.0,13.0,30,-99.99,,,-99.99,,2013-01-02 16:43:00,
2013-01-02 10:53:00,36.0,8.0,-100.00,SSE,161,9.0,12.0,31,-99.99,,,-99.99,,2013-01-02 16:53:00,
2013-01-02 11:03:00,36.0,9.0,-100.00,SSE,159,7.0,10.0,32,-99.99,,,-99.99,,2013-01-02 17:03:00,
2013-01-02 11:12:00,36.0,7.0,-100.00,SSE,151,6.0,10.0,30,-99.99,,,-99.99,,2013-01-02 17:12:00,
2013-01-02 11:23:00,36.0,7.0,-100.00,South,170,7.0,10.0,29,-99.99,,,-99.99,,2013-01-02 17:23:00,
2013-01-02 11:33:00,37.0,7.0,-100.00,SSE,166,7.0,12.0,28,-99.99,,,-99.99,,2013-01-02 17:33:00,
2013-01-02 11:43:00,37.0,7.0,-100.00,South,171,9.0,16.0,28,-99.99,,,-99.99,,2013-01-02 17:43:00,
2013-01-02 11:53:00,39.0,10.0,-100.00,SSE,166,9.0,14.0,29,-99.99,,,-99.99,,2013-01-02 17:53:00,
2013-01-02 12:02:00,39.0,10.0,-100.00,South,178,7.0,13.0,30,-99.99,,,-99.99,,2013-01-02 18:02:00,
2013-01-02 12:12:00,39.0,12.0,-100.00,SSE,159,7.0,14.0,32,-99.99,,,-99.99,,2013-01-02 18:12:00,
2013-01-02 12:22:00,39.0,11.0,-100.00,SSE,166,10.0,17.0,31,-99.99,,,-99.99,,2013-01-02 18:22:00,
2013-01-02 12:33:00,41.0,13.0,-100.00,SSE,165,8.0,13.0,32,-99.99,,,-99.99,,2013-01-02 18:33:00,
2013-01-02 12:42:00,41.0,13.0,-100.00,SSE,166,8.0,14.0,32,-99.99,,,-99.99,,2013-01-02 18:42:00,
2013-01-02 12:53:00,41.0,13.0,-100.00,SSE,165,10.0,17.0,32,-99.99,,,-99.99,,2013-01-02 18:53:00,
2013-01-02 13:03:00,41.0,14.0,-100.00,SSE,163,8.0,13.0,33,-99.99,,,-99.99,,2013-01-02 19:03:00,
2013-01-02 13:12:00,43.0,16.0,-100.00,SSE,160,7.0,14.0,33,-99.99,,,-99.99,,2013-01-02 19:12:00,
2013-01-02 13:23:00,43.0,16.0,-100.00,South,173,7.0,15.0,33,-99.99,,,-99.99,,2013-01-02 19:23:00,
2013-01-02 13:33:00,43.0,16.0,-100.00,SE,144,9.0,15.0,34,-99.99,,,-99.99,,2013-01-02 19:33:00,
2013-01-02 13:43:00,43.0,16.0,-100.00,SE,144,9.0,15.0,34,-99.99,,,-99.99,,2013-01-02 19:43:00,
2013-01-02 13:52:00,45.0,17.0,-100.00,South,176,7.0,15.0,33,-99.99,,,-99.99,,2013-01-02 19:52:00,
2013-01-02 14:03:00,43.0,16.0,-100.00,SSE,163,6.0,14.0,34,-99.99,,,-99.99,,2013-01-02 20:03:00,
2013-01-02 14:12:00,45.0,17.0,-100.00,South,170,7.0,15.0,33,-99.99,,,-99.99,,2013-01-02 20:12:00,
2013-01-02 14:23:00,45.0,19.0,-100.00,SSE,168,5.0,13.0,36,-99.99,,,-99.99,,2013-01-02 20:23:00,
2013-01-02 14:33:00,46.0,20.0,-100.00,SSW,202,9.0,18.0,35,-99.99,,,-99.99,,2013-01-02 20:33:00,
2013-01-02 14:42:00,45.0,19.0,-100.00,South,184,7.0,16.0,36,-99.99,,,-99.99,,2013-01-02 20:42:00,
2013-01-02 14:53:00,45.0,19.0,-100.00,SSW,206,10.0,15.0,36,-99.99,,,-99.99,,2013-01-02 20:53:00,
2013-01-02 15:03:00,46.0,21.0,-100.00,South,188,10.0,15.0,36,-99.99,,,-99.99,,2013-01-02 21:03:00,
2013-01-02 15:13:00,46.0,20.0,-100.00,South,187,9.0,15.0,35,-99.99,,,-99.99,,2013-01-02 21:13:00,
2013-01-02 15:22:00,46.0,20.0,-100.00,South,186,6.0,17.0,35,-99.99,,,-99.99,,2013-01-02 21:22:00,
2013-01-02 15:32:00,46.0,21.0,-100.00,South,179,8.0,16.0,36,-99.99,,,-99.99,,2013-01-02 21:32:00,
2013-01-02 15:42:00,48.0,21.0,-100.00,South,186,5.0,14.0,34,-99.99,,,-99.99,,2013-01-02 21:42:00,
2013-01-02 15:52:00,46.0,20.0,-100.00,South,181,7.0,16.0,35,-99.99,,,-99.99,,2013-01-02 21:52:00,
2013-01-02 16:03:00,46.0,20.0,-100.00,South,182,8.0,17.0,35,-99.99,,,-99.99,,2013-01-02 22:03:00,
2013-01-02 16:12:00,45.0,21.0,-100.00,East,87,7.0,11.0,38,-99.99,,,-99.99,,2013-01-02 22:12:00,
2013-01-02 16:22:00,39.0,21.0,-100.00,East,89,8.0,11.0,47,-99.99,,,-99.99,,2013-01-02 22:22:00,
2013-01-02 16:32:00,37.0,21.0,-100.00,East,94,9.0,14.0,51,-99.99,,,-99.99,,2013-01-02 22:32:00,
2013-01-02 16:42:00,36.0,20.0,-100.00,East,96,10.0,16.0,53,-99.99,,,-99.99,,2013-01-02 22:42:00,
2013-01-02 16:52:00,36.0,20.0,-100.00,East,101,8.0,13.0,53,-99.99,,,-99.99,,2013-01-02 22:52:00,
2013-01-02 17:03:00,36.0,21.0,-100.00,East,101,9.0,12.0,54,-99.99,,,-99.99,,2013-01-02 23:03:00,
2013-01-02 17:12:00,36.0,21.0,-100.00,East,101,9.0,11.0,55,-99.99,,,-99.99,,2013-01-02 23:12:00,
2013-01-02 17:23:00,36.0,21.0,-100.00,East,89,9.0,13.0,56,-99.99,,,-99.99,,2013-01-02 23:23:00,
2013-01-02 17:33:00,36.0,22.0,-100.00,ESE,102,10.0,13.0,57,-99.99,,,-99.99,,2013-01-02 23:33:00,
2013-01-02 17:42:00,34.0,21.0,-100.00,East,92,11.0,15.0,58,-99.99,,,-99.99,,2013-01-02 23:42:00,
2013-01-02 17:52:00,34.0,21.0,-100.00,East,94,11.0,15.0,60,-99.99,,,-99.99,,2013-01-02 23:52:00,
2013-01-02 18:02:00,34.0,22.0,-100.00,ESE,105,11.0,13.0,61,-99.99,,,-99.99,,2013-01-03 00:02:00,
2013-01-02 18:12:00,32.0,21.0,-100.00,East,94,11.0,14.0,63,-99.99,,,-99.99,,2013-01-03 00:12:00,
2013-01-02 18:22:00,32.0,22.0,-100.00,East,92,11.0,16.0,65,-99.99,,,-99.99,,2013-01-03 00:22:00,
2013-01-02 18:38:00,30.0,21.0,-100.00,East,92,11.0,14.0,67,-99.99,,,-99.99,,2013-01-03 00:38:00,
2013-01-02 18:52:00,30.0,22.0,-100.00,East,92,10.0,13.0,70,-99.99,,,-99.99,,2013-01-03 00:52:00,
2013-01-02 19:02:00,30.0,22.0,-100.00,East,94,11.0,13.0,71,-99.99,,,-99.99,,2013-01-03 01:02:00,
2013-01-02 19:12:00,28.0,21.0,-100.00,East,98,11.0,14.0,72,-99.99,,,-99.99,,2013-01-03 01:12:00,
2013-01-02 19:22:00,30.0,22.0,-100.00,East,100,11.0,13.0,72,-99.99,,,-99.99,,2013-01-03 01:22:00,
2013-01-02 19:32:00,30.0,22.0,-100.00,ESE,111,12.0,14.0,70,-99.99,,,-99.99,,2013-01-03 01:32:00,
2013-01-02 19:42:00,30.0,21.0,-100.00,ESE,117,11.0,14.0,69,-99.99,,,-99.99,,2013-01-03 01:42:00,
2013-01-02 19:52:00,30.0,21.0,-100.00,ESE,118,12.0,14.0,69,-99.99,,,-99.99,,2013-01-03 01:52:00,
2013-01-02 20:02:00,30.0,22.0,-100.00,ESE,119,13.0,16.0,70,-99.99,,,-99.99,,2013-01-03 02:02:00,
2013-01-02 20:12:00,30.0,22.0,-100.00,ESE,118,14.0,17.0,70,-99.99,,,-99.99,,2013-01-03 02:12:00,
2013-01-02 20:22:00,30.0,22.0,-100.00,ESE,111,14.0,17.0,70,-99.99,,,-99.99,,2013-01-03 02:22:00,
2013-01-02 20:33:00,30.0,22.0,-100.00,ESE,109,14.0,17.0,71,-99.99,,,-99.99,,2013-01-03 02:33:00,
2013-01-02 20:42:00,30.0,22.0,-100.00,ESE,109,14.0,17.0,71,-99.99,,,-99.99,,2013-01-03 02:42:00,
2013-01-02 20:52:00,30.0,22.0,-100.00,ESE,109,14.0,17.0,71,-99.99,,,-99.99,,2013-01-03 02:52:00,
2013-01-02 21:02:00,30.0,23.0,-100.00,ESE,110,13.0,16.0,73,-99.99,,,-99.99,,2013-01-03 03:02:00,
2013-01-02 21:12:00,30.0,23.0,-100.00,ESE,109,15.0,18.0,74,-99.99,,,-99.99,,2013-01-03 03:12:00,
2013-01-02 21:22:00,30.0,23.0,-100.00,ESE,104,13.0,17.0,75,-99.99,,,-99.99,,2013-01-03 03:22:00,
2013-01-02 21:46:00,28.0,21.0,-100.00,East,94,15.0,20.0,74,-99.99,,,-99.99,,2013-01-03 03:46:00,
2013-01-02 21:52:00,28.0,21.0,-100.00,East,96,15.0,18.0,74,-99.99,,,-99.99,,2013-01-03 03:52:00,
2013-01-02 22:02:00,28.0,21.0,-100.00,East,96,15.0,18.0,74,-99.99,,,-99.99,,2013-01-03 04:02:00,
2013-01-02 22:12:00,28.0,22.0,-100.00,East,95,14.0,20.0,75,-99.99,,,-99.99,,2013-01-03 04:12:00,
2013-01-02 22:22:00,28.0,22.0,-100.00,East,94,14.0,19.0,76,-99.99,,,-99.99,,2013-01-03 04:22:00,
2013-01-02 22:32:00,28.0,22.0,-100.00,East,91,15.0,19.0,77,-99.99,,,-99.99,,2013-01-03 04:32:00,
2013-01-02 22:42:00,28.0,22.0,-100.00,East,91,15.0,19.0,77,-99.99,,,-99.99,,2013-01-03 04:42:00,
2013-01-02 22:52:00,28.0,22.0,-100.00,East,93,14.0,17.0,77,-99.99,,,-99.99,,2013-01-03 04:52:00,
2013-01-02 23:03:00,28.0,22.0,-100.00,East,94,13.0,15.0,77,-99.99,,,-99.99,,2013-01-03 05:03:00,
2013-01-02 23:12:00,28.0,22.0,-100.00,East,88,11.0,13.0,78,-99.99,,,-99.99,,2013-01-03 05:12:00,
2013-01-02 23:22:00,28.0,22.0,-100.00,East,88,12.0,14.0,78,-99.99,,,-99.99,,2013-01-03 05:22:00,
2013-01-02 23:33:00,28.0,23.0,-100.00,East,84,10.0,12.0,80,-99.99,,,-99.99,,2013-01-03 05:33:00,
2013-01-02 23:42:00,28.0,23.0,-100.00,East,84,10.0,12.0,80,-99.99,,,-99.99,,2013-01-03 05:42:00,
2013-01-02 23:52:00,28.0,23.0,-100.00,East,80,12.0,14.0,81,-99.99,,,-99.99,,2013-01-03 05:52:00,